sensor_id;sensor_type;location;lat;lon;timestamp;P1;durP1;ratioP1;P2;durP2;ratioP2
46653;SDS011;38960;51.074;17.004;2023-06-14T06:24:26;24.70;;;22.88;;
46653;SDS011;38960;51.074;17.004;2023-06-14T06:26:52;24.75;;;22.75;;
46653;SDS011;38960;51.074;17.004;2023-06-14T06:29:17;23.45;;;21.70;;
46653;SDS011;38960;51.074;17.004;2023-06-14T06:31:43;24.45;;;22.60;;
46653;SDS011;38960;51.074;17.004;2023-06-14T06:34:10;24.50;;;22.55;;
46653;SDS011;38960;51.074;17.004;2023-06-14T06:36:36;25.20;;;23.20;;
46653;SDS011;38960;51.074;17.004;2023-06-14T06:39:02;26.55;;;24.13;;
46653;SDS011;38960;51.074;17.004;2023-06-14T06:41:34;23.77;;;21.77;;
46653;SDS011;38960;51.074;17.004;2023-06-14T06:44:01;25.30;;;23.08;;
46653;SDS011;38960;51.074;17.004;2023-06-14T06:46:28;27.73;;;25.63;;
46653;SDS011;38960;51.074;17.004;2023-06-14T06:48:53;28.95;;;21.60;;
46653;SDS011;38960;51.074;17.004;2023-06-14T06:51:19;25.33;;;23.42;;
46653;SDS011;38960;51.074;17.004;2023-06-14T06:53:51;28.27;;;25.70;;
46653;SDS011;38960;51.074;17.004;2023-06-14T06:56:18;28.00;;;25.50;;
46653;SDS011;38960;51.074;17.004;2023-06-14T06:58:44;26.35;;;23.83;;
46653;SDS011;38960;51.074;17.004;2023-06-14T07:01:10;27.23;;;25.10;;
46653;SDS011;38960;51.074;17.004;2023-06-14T07:03:36;27.50;;;25.10;;
46653;SDS011;38960;51.074;17.004;2023-06-14T07:06:02;28.77;;;25.90;;
46653;SDS011;38960;51.074;17.004;2023-06-14T07:08:28;27.98;;;25.38;;
46653;SDS011;38960;51.074;17.004;2023-06-14T07:10:53;26.77;;;24.60;;
46653;SDS011;38960;51.074;17.004;2023-06-14T07:13:19;26.92;;;24.73;;
46653;SDS011;38960;51.074;17.004;2023-06-14T07:15:45;26.30;;;24.02;;
46653;SDS011;38960;51.074;17.004;2023-06-14T07:18:11;25.10;;;22.85;;
46653;SDS011;38960;51.074;17.004;2023-06-14T07:20:36;26.23;;;24.00;;
46653;SDS011;38960;51.074;17.004;2023-06-14T07:23:03;25.85;;;23.83;;
46653;SDS011;38960;51.074;17.004;2023-06-14T07:25:29;26.85;;;24.65;;
46653;SDS011;38960;51.074;17.004;2023-06-14T07:27:54;25.23;;;23.42;;
46653;SDS011;38960;51.074;17.004;2023-06-14T07:31:16;25.73;;;23.63;;
46653;SDS011;38960;51.074;17.004;2023-06-14T07:33:42;25.83;;;23.90;;
46653;SDS011;38960;51.074;17.004;2023-06-14T07:36:07;26.23;;;24.23;;
46653;SDS011;38960;51.074;17.004;2023-06-14T07:38:33;26.02;;;24.08;;
46653;SDS011;38960;51.074;17.004;2023-06-14T07:40:59;26.42;;;24.33;;
46653;SDS011;38960;51.074;17.004;2023-06-14T07:43:25;27.10;;;25.10;;
46653;SDS011;38960;51.074;17.004;2023-06-14T07:45:50;26.60;;;24.55;;
46653;SDS011;38960;51.074;17.004;2023-06-14T07:48:16;25.70;;;23.75;;
46653;SDS011;38960;51.074;17.004;2023-06-14T07:50:42;26.20;;;24.25;;
46653;SDS011;38960;51.074;17.004;2023-06-14T07:53:08;27.67;;;25.58;;
46653;SDS011;38960;51.074;17.004;2023-06-14T07:55:33;25.63;;;23.52;;
46653;SDS011;38960;51.074;17.004;2023-06-14T07:58:02;25.48;;;23.70;;
46653;SDS011;38960;51.074;17.004;2023-06-14T08:00:28;26.73;;;24.63;;
46653;SDS011;38960;51.074;17.004;2023-06-14T08:02:54;28.63;;;25.77;;
46653;SDS011;38960;51.074;17.004;2023-06-14T08:05:24;25.90;;;23.92;;
46653;SDS011;38960;51.074;17.004;2023-06-14T08:07:51;28.65;;;26.50;;
46653;SDS011;38960;51.074;17.004;2023-06-14T08:10:17;26.33;;;24.08;;
46653;SDS011;38960;51.074;17.004;2023-06-14T08:12:43;24.40;;;22.38;;
46653;SDS011;38960;51.074;17.004;2023-06-14T08:15:08;24.52;;;22.63;;
46653;SDS011;38960;51.074;17.004;2023-06-14T08:17:34;24.95;;;23.05;;
46653;SDS011;38960;51.074;17.004;2023-06-14T08:20:00;22.40;;;20.83;;
46653;SDS011;38960;51.074;17.004;2023-06-14T08:22:26;24.70;;;22.98;;
46653;SDS011;38960;51.074;17.004;2023-06-14T08:24:53;24.70;;;22.88;;
46653;SDS011;38960;51.074;17.004;2023-06-14T08:27:19;21.77;;;20.30;;
46653;SDS011;38960;51.074;17.004;2023-06-14T08:29:45;25.00;;;23.25;;
46653;SDS011;38960;51.074;17.004;2023-06-14T08:32:12;24.58;;;22.45;;
46653;SDS011;38960;51.074;17.004;2023-06-14T08:34:37;24.10;;;22.08;;
46653;SDS011;38960;51.074;17.004;2023-06-14T08:37:03;24.10;;;22.30;;
46653;SDS011;38960;51.074;17.004;2023-06-14T08:39:28;24.38;;;22.45;;
46653;SDS011;38960;51.074;17.004;2023-06-14T08:41:54;25.27;;;23.38;;
46653;SDS011;38960;51.074;17.004;2023-06-14T08:44:20;24.40;;;22.23;;
46653;SDS011;38960;51.074;17.004;2023-06-14T08:46:45;25.90;;;23.83;;
46653;SDS011;38960;51.074;17.004;2023-06-14T08:49:12;26.10;;;24.10;;
46653;SDS011;38960;51.074;17.004;2023-06-14T08:51:39;23.90;;;22.15;;
46653;SDS011;38960;51.074;17.004;2023-06-14T08:54:05;22.85;;;20.88;;
46653;SDS011;38960;51.074;17.004;2023-06-14T08:56:31;24.00;;;22.15;;
46653;SDS011;38960;51.074;17.004;2023-06-14T08:58:59;23.70;;;21.65;;
46653;SDS011;38960;51.074;17.004;2023-06-14T09:01:30;23.83;;;21.77;;
46653;SDS011;38960;51.074;17.004;2023-06-14T09:03:59;25.80;;;23.63;;
46653;SDS011;38960;51.074;17.004;2023-06-14T09:06:25;25.65;;;23.70;;
46653;SDS011;38960;51.074;17.004;2023-06-14T09:08:54;25.73;;;23.73;;
46653;SDS011;38960;51.074;17.004;2023-06-14T09:11:21;26.00;;;23.58;;
46653;SDS011;38960;51.074;17.004;2023-06-14T09:13:48;24.20;;;22.33;;
46653;SDS011;38960;51.074;17.004;2023-06-14T09:16:14;26.50;;;24.10;;
46653;SDS011;38960;51.074;17.004;2023-06-14T09:18:44;25.63;;;23.63;;
46653;SDS011;38960;51.074;17.004;2023-06-14T09:21:13;26.00;;;23.90;;
46653;SDS011;38960;51.074;17.004;2023-06-14T09:23:43;23.80;;;21.90;;
46653;SDS011;38960;51.074;17.004;2023-06-14T09:26:14;25.35;;;23.38;;
46653;SDS011;38960;51.074;17.004;2023-06-14T09:28:41;24.42;;;22.63;;
46653;SDS011;38960;51.074;17.004;2023-06-14T09:31:14;25.40;;;22.77;;
46653;SDS011;38960;51.074;17.004;2023-06-14T09:33:44;23.25;;;21.55;;
46653;SDS011;38960;51.074;17.004;2023-06-14T09:36:15;23.95;;;21.77;;
46653;SDS011;38960;51.074;17.004;2023-06-14T09:41:18;22.17;;;20.45;;
46653;SDS011;38960;51.074;17.004;2023-06-14T09:43:44;24.55;;;22.33;;
46653;SDS011;38960;51.074;17.004;2023-06-14T09:46:12;22.70;;;20.88;;
46653;SDS011;38960;51.074;17.004;2023-06-14T09:48:37;23.63;;;21.55;;
46653;SDS011;38960;51.074;17.004;2023-06-14T09:51:07;23.20;;;21.23;;
46653;SDS011;38960;51.074;17.004;2023-06-14T09:53:35;22.55;;;20.63;;
46653;SDS011;38960;51.074;17.004;2023-06-14T09:56:02;22.10;;;20.17;;
46653;SDS011;38960;51.074;17.004;2023-06-14T09:58:28;23.60;;;21.50;;
46653;SDS011;38960;51.074;17.004;2023-06-14T10:00:53;22.48;;;20.35;;
46653;SDS011;38960;51.074;17.004;2023-06-14T10:03:27;20.85;;;19.35;;
46653;SDS011;38960;51.074;17.004;2023-06-14T10:05:55;22.27;;;20.30;;
46653;SDS011;38960;51.074;17.004;2023-06-14T10:08:23;22.85;;;20.55;;
46653;SDS011;38960;51.074;17.004;2023-06-14T10:10:51;22.95;;;20.98;;
46653;SDS011;38960;51.074;17.004;2023-06-14T10:13:17;21.75;;;19.95;;
46653;SDS011;38960;51.074;17.004;2023-06-14T10:21:08;21.45;;;19.92;;
46653;SDS011;38960;51.074;17.004;2023-06-14T10:23:41;21.42;;;19.92;;
46653;SDS011;38960;51.074;17.004;2023-06-14T10:26:08;23.67;;;20.45;;
46653;SDS011;38960;51.074;17.004;2023-06-14T10:28:34;20.85;;;18.92;;
46653;SDS011;38960;51.074;17.004;2023-06-14T10:31:09;22.25;;;20.33;;
46653;SDS011;38960;51.074;17.004;2023-06-14T10:33:37;20.83;;;19.08;;
46653;SDS011;38960;51.074;17.004;2023-06-14T10:39:01;21.85;;;20.33;;
46653;SDS011;38960;51.074;17.004;2023-06-14T10:41:30;20.80;;;19.25;;
46653;SDS011;38960;51.074;17.004;2023-06-14T10:46:58;23.80;;;19.92;;
46653;SDS011;38960;51.074;17.004;2023-06-14T10:49:39;20.98;;;19.10;;
46653;SDS011;38960;51.074;17.004;2023-06-14T10:52:14;21.77;;;19.90;;
46653;SDS011;38960;51.074;17.004;2023-06-14T10:54:55;22.98;;;21.27;;
46653;SDS011;38960;51.074;17.004;2023-06-14T10:57:31;22.90;;;20.77;;
46653;SDS011;38960;51.074;17.004;2023-06-14T10:59:59;25.75;;;21.25;;
46653;SDS011;38960;51.074;17.004;2023-06-14T11:05:25;23.45;;;21.05;;
46653;SDS011;38960;51.074;17.004;2023-06-14T11:08:03;22.50;;;20.52;;
46653;SDS011;38960;51.074;17.004;2023-06-14T11:10:39;19.27;;;17.83;;
46653;SDS011;38960;51.074;17.004;2023-06-14T11:13:06;20.20;;;18.58;;
46653;SDS011;38960;51.074;17.004;2023-06-14T11:15:33;20.80;;;19.05;;
46653;SDS011;38960;51.074;17.004;2023-06-14T11:18:03;18.83;;;17.65;;
46653;SDS011;38960;51.074;17.004;2023-06-14T11:20:32;20.20;;;18.45;;
46653;SDS011;38960;51.074;17.004;2023-06-14T11:23:00;20.40;;;18.83;;
46653;SDS011;38960;51.074;17.004;2023-06-14T11:25:26;20.60;;;19.00;;
46653;SDS011;38960;51.074;17.004;2023-06-14T11:27:53;19.05;;;17.55;;
46653;SDS011;38960;51.074;17.004;2023-06-14T11:30:19;19.88;;;18.38;;
46653;SDS011;38960;51.074;17.004;2023-06-14T11:32:48;22.33;;;19.42;;
46653;SDS011;38960;51.074;17.004;2023-06-14T11:35:14;19.65;;;18.27;;
46653;SDS011;38960;51.074;17.004;2023-06-14T11:37:40;21.98;;;19.83;;
46653;SDS011;38960;51.074;17.004;2023-06-14T11:40:07;21.52;;;19.38;;
46653;SDS011;38960;51.074;17.004;2023-06-14T11:42:38;19.90;;;18.40;;
46653;SDS011;38960;51.074;17.004;2023-06-14T11:45:08;21.13;;;19.43;;
46653;SDS011;38960;51.074;17.004;2023-06-14T11:47:38;21.42;;;19.77;;
46653;SDS011;38960;51.074;17.004;2023-06-14T11:50:08;20.20;;;18.45;;
46653;SDS011;38960;51.074;17.004;2023-06-14T11:52:34;20.52;;;19.13;;
46653;SDS011;38960;51.074;17.004;2023-06-14T11:55:01;21.83;;;19.90;;
46653;SDS011;38960;51.074;17.004;2023-06-14T11:57:28;21.48;;;19.80;;
46653;SDS011;38960;51.074;17.004;2023-06-14T11:59:54;20.23;;;18.80;;
46653;SDS011;38960;51.074;17.004;2023-06-14T12:02:21;21.65;;;20.15;;
46653;SDS011;38960;51.074;17.004;2023-06-14T12:04:47;20.80;;;19.13;;
46653;SDS011;38960;51.074;17.004;2023-06-14T12:07:14;20.50;;;18.75;;
46653;SDS011;38960;51.074;17.004;2023-06-14T12:10:04;21.08;;;19.05;;
46653;SDS011;38960;51.074;17.004;2023-06-14T12:12:34;21.43;;;19.30;;
46653;SDS011;38960;51.074;17.004;2023-06-14T12:15:02;20.35;;;18.85;;
46653;SDS011;38960;51.074;17.004;2023-06-14T12:17:31;20.25;;;18.63;;
46653;SDS011;38960;51.074;17.004;2023-06-14T12:19:58;20.80;;;18.83;;
46653;SDS011;38960;51.074;17.004;2023-06-14T12:22:23;20.98;;;18.88;;
46653;SDS011;38960;51.074;17.004;2023-06-14T12:24:49;20.10;;;18.45;;
46653;SDS011;38960;51.074;17.004;2023-06-14T12:27:15;19.25;;;17.80;;
46653;SDS011;38960;51.074;17.004;2023-06-14T12:29:41;21.50;;;19.63;;
46653;SDS011;38960;51.074;17.004;2023-06-14T12:32:10;19.77;;;18.25;;
46653;SDS011;38960;51.074;17.004;2023-06-14T12:34:36;19.27;;;17.83;;
46653;SDS011;38960;51.074;17.004;2023-06-14T12:37:02;19.45;;;17.95;;
46653;SDS011;38960;51.074;17.004;2023-06-14T12:39:29;19.63;;;18.38;;
46653;SDS011;38960;51.074;17.004;2023-06-14T12:41:57;19.10;;;17.48;;
46653;SDS011;38960;51.074;17.004;2023-06-14T12:44:22;18.73;;;17.05;;
46653;SDS011;38960;51.074;17.004;2023-06-14T12:46:48;18.80;;;17.10;;
46653;SDS011;38960;51.074;17.004;2023-06-14T12:49:16;19.38;;;17.65;;
46653;SDS011;38960;51.074;17.004;2023-06-14T12:51:42;18.95;;;17.58;;
46653;SDS011;38960;51.074;17.004;2023-06-14T12:54:07;19.23;;;17.50;;
46653;SDS011;38960;51.074;17.004;2023-06-14T12:56:33;21.35;;;19.40;;
46653;SDS011;38960;51.074;17.004;2023-06-14T12:58:58;19.75;;;18.05;;
46653;SDS011;38960;51.074;17.004;2023-06-14T13:01:24;19.45;;;17.85;;
46653;SDS011;38960;51.074;17.004;2023-06-14T13:03:49;19.95;;;17.92;;
46653;SDS011;38960;51.074;17.004;2023-06-14T13:06:16;22.15;;;17.98;;
46653;SDS011;38960;51.074;17.004;2023-06-14T13:08:42;19.65;;;17.77;;
46653;SDS011;38960;51.074;17.004;2023-06-14T13:11:08;19.65;;;18.15;;
46653;SDS011;38960;51.074;17.004;2023-06-14T13:13:34;20.73;;;19.13;;
46653;SDS011;38960;51.074;17.004;2023-06-14T13:15:59;20.48;;;18.70;;
46653;SDS011;38960;51.074;17.004;2023-06-14T13:18:25;20.55;;;18.95;;
46653;SDS011;38960;51.074;17.004;2023-06-14T13:20:51;21.17;;;19.38;;
46653;SDS011;38960;51.074;17.004;2023-06-14T13:23:17;21.85;;;19.60;;
46653;SDS011;38960;51.074;17.004;2023-06-14T13:25:43;20.55;;;18.95;;
46653;SDS011;38960;51.074;17.004;2023-06-14T13:28:08;21.23;;;19.33;;
46653;SDS011;38960;51.074;17.004;2023-06-14T13:30:34;20.52;;;18.85;;
46653;SDS011;38960;51.074;17.004;2023-06-14T13:33:00;19.92;;;18.33;;
46653;SDS011;38960;51.074;17.004;2023-06-14T13:35:25;19.50;;;17.95;;
46653;SDS011;38960;51.074;17.004;2023-06-14T13:37:51;20.88;;;19.05;;
46653;SDS011;38960;51.074;17.004;2023-06-14T13:40:17;20.13;;;18.35;;
46653;SDS011;38960;51.074;17.004;2023-06-14T13:42:42;19.52;;;18.02;;
46653;SDS011;38960;51.074;17.004;2023-06-14T13:45:09;20.60;;;18.98;;
46653;SDS011;38960;51.074;17.004;2023-06-14T13:47:36;20.30;;;18.83;;
46653;SDS011;38960;51.074;17.004;2023-06-14T13:50:02;20.30;;;18.35;;
46653;SDS011;38960;51.074;17.004;2023-06-14T13:52:29;19.10;;;17.48;;
46653;SDS011;38960;51.074;17.004;2023-06-14T13:54:54;20.10;;;18.85;;
46653;SDS011;38960;51.074;17.004;2023-06-14T13:57:20;19.42;;;17.80;;
46653;SDS011;38960;51.074;17.004;2023-06-14T13:59:45;19.33;;;18.00;;
46653;SDS011;38960;51.074;17.004;2023-06-14T14:02:11;19.73;;;18.20;;
46653;SDS011;38960;51.074;17.004;2023-06-14T14:04:37;19.50;;;17.90;;
46653;SDS011;38960;51.074;17.004;2023-06-14T14:07:03;19.73;;;18.38;;
46653;SDS011;38960;51.074;17.004;2023-06-14T14:09:30;19.67;;;18.27;;
46653;SDS011;38960;51.074;17.004;2023-06-14T14:11:57;20.77;;;19.27;;
46653;SDS011;38960;51.074;17.004;2023-06-14T14:14:23;19.90;;;18.70;;
46653;SDS011;38960;51.074;17.004;2023-06-14T14:16:49;19.67;;;18.42;;
46653;SDS011;38960;51.074;17.004;2023-06-14T14:19:17;20.50;;;18.90;;
46653;SDS011;38960;51.074;17.004;2023-06-14T14:21:44;20.95;;;19.38;;
46653;SDS011;38960;51.074;17.004;2023-06-14T14:24:10;21.98;;;20.05;;
46653;SDS011;38960;51.074;17.004;2023-06-14T14:26:36;21.05;;;19.25;;
46653;SDS011;38960;51.074;17.004;2023-06-14T14:29:01;21.40;;;20.00;;
46653;SDS011;38960;51.074;17.004;2023-06-14T14:31:27;21.55;;;19.95;;
46653;SDS011;38960;51.074;17.004;2023-06-14T14:33:53;20.73;;;19.23;;
46653;SDS011;38960;51.074;17.004;2023-06-14T14:36:19;20.33;;;18.45;;
46653;SDS011;38960;51.074;17.004;2023-06-14T14:38:44;21.27;;;19.58;;
46653;SDS011;38960;51.074;17.004;2023-06-14T14:41:10;22.75;;;21.13;;
46653;SDS011;38960;51.074;17.004;2023-06-14T14:43:35;18.25;;;17.10;;
46653;SDS011;38960;51.074;17.004;2023-06-14T14:46:01;21.02;;;19.42;;
46653;SDS011;38960;51.074;17.004;2023-06-14T14:48:26;20.80;;;19.20;;
46653;SDS011;38960;51.074;17.004;2023-06-14T14:50:52;20.30;;;18.90;;
46653;SDS011;38960;51.074;17.004;2023-06-14T14:53:17;20.63;;;19.10;;
46653;SDS011;38960;51.074;17.004;2023-06-14T14:55:43;20.48;;;19.00;;
46653;SDS011;38960;51.074;17.004;2023-06-14T14:58:09;20.30;;;18.92;;
46653;SDS011;38960;51.074;17.004;2023-06-14T15:00:35;21.00;;;19.48;;
46653;SDS011;38960;51.074;17.004;2023-06-14T15:03:00;20.67;;;19.38;;
46653;SDS011;38960;51.074;17.004;2023-06-14T15:05:26;20.52;;;18.90;;
46653;SDS011;38960;51.074;17.004;2023-06-14T15:07:52;21.20;;;19.70;;
46653;SDS011;38960;51.074;17.004;2023-06-14T15:10:17;21.23;;;19.60;;
46653;SDS011;38960;51.074;17.004;2023-06-14T15:12:43;20.65;;;18.95;;
46653;SDS011;38960;51.074;17.004;2023-06-14T15:15:08;22.02;;;20.25;;
46653;SDS011;38960;51.074;17.004;2023-06-14T15:17:35;21.50;;;19.85;;
46653;SDS011;38960;51.074;17.004;2023-06-14T15:20:00;22.10;;;20.13;;
46653;SDS011;38960;51.074;17.004;2023-06-14T15:22:26;22.38;;;20.65;;
46653;SDS011;38960;51.074;17.004;2023-06-14T15:24:51;21.20;;;19.58;;
46653;SDS011;38960;51.074;17.004;2023-06-14T15:27:17;22.30;;;20.80;;
46653;SDS011;38960;51.074;17.004;2023-06-14T15:29:43;21.75;;;19.75;;
46653;SDS011;38960;51.074;17.004;2023-06-14T15:32:09;21.73;;;20.10;;
46653;SDS011;38960;51.074;17.004;2023-06-14T15:34:34;22.05;;;20.17;;
46653;SDS011;38960;51.074;17.004;2023-06-14T15:37:00;22.60;;;20.65;;
46653;SDS011;38960;51.074;17.004;2023-06-14T15:39:28;22.48;;;20.48;;
46653;SDS011;38960;51.074;17.004;2023-06-14T15:41:55;22.85;;;21.05;;
46653;SDS011;38960;51.074;17.004;2023-06-14T15:44:21;22.83;;;20.48;;
46653;SDS011;38960;51.074;17.004;2023-06-14T15:46:46;22.02;;;20.52;;
46653;SDS011;38960;51.074;17.004;2023-06-14T15:49:12;22.48;;;20.67;;
46653;SDS011;38960;51.074;17.004;2023-06-14T15:51:38;23.17;;;21.23;;
46653;SDS011;38960;51.074;17.004;2023-06-14T15:54:04;21.80;;;20.00;;
46653;SDS011;38960;51.074;17.004;2023-06-14T15:56:30;23.58;;;21.77;;
46653;SDS011;38960;51.074;17.004;2023-06-14T15:58:56;22.52;;;21.02;;
46653;SDS011;38960;51.074;17.004;2023-06-14T16:01:22;22.80;;;20.92;;
46653;SDS011;38960;51.074;17.004;2023-06-14T16:03:49;24.02;;;21.63;;
46653;SDS011;38960;51.074;17.004;2023-06-14T16:06:14;24.42;;;21.90;;
46653;SDS011;38960;51.074;17.004;2023-06-14T16:08:40;23.25;;;21.33;;
46653;SDS011;38960;51.074;17.004;2023-06-14T16:11:05;22.80;;;21.00;;
46653;SDS011;38960;51.074;17.004;2023-06-14T16:13:31;22.85;;;21.17;;
46653;SDS011;38960;51.074;17.004;2023-06-14T16:15:57;23.27;;;21.33;;
46653;SDS011;38960;51.074;17.004;2023-06-14T16:18:23;23.33;;;21.45;;
46653;SDS011;38960;51.074;17.004;2023-06-14T16:20:48;22.20;;;20.35;;
46653;SDS011;38960;51.074;17.004;2023-06-14T16:23:14;23.20;;;21.15;;
46653;SDS011;38960;51.074;17.004;2023-06-14T16:25:39;22.67;;;21.05;;
46653;SDS011;38960;51.074;17.004;2023-06-14T16:28:05;22.65;;;20.98;;
46653;SDS011;38960;51.074;17.004;2023-06-14T16:30:30;22.02;;;20.33;;
46653;SDS011;38960;51.074;17.004;2023-06-14T16:32:56;21.35;;;19.95;;
46653;SDS011;38960;51.074;17.004;2023-06-14T16:35:22;22.13;;;20.40;;
46653;SDS011;38960;51.074;17.004;2023-06-14T16:37:48;21.27;;;19.73;;
46653;SDS011;38960;51.074;17.004;2023-06-14T16:40:13;22.70;;;20.42;;
46653;SDS011;38960;51.074;17.004;2023-06-14T16:42:39;22.45;;;20.70;;
46653;SDS011;38960;51.074;17.004;2023-06-14T16:45:05;22.60;;;20.70;;
46653;SDS011;38960;51.074;17.004;2023-06-14T16:47:31;20.20;;;18.65;;
46653;SDS011;38960;51.074;17.004;2023-06-14T16:49:57;22.13;;;20.38;;
46653;SDS011;38960;51.074;17.004;2023-06-14T16:52:22;21.05;;;19.45;;
46653;SDS011;38960;51.074;17.004;2023-06-14T16:54:47;21.38;;;19.33;;
46653;SDS011;38960;51.074;17.004;2023-06-14T16:57:13;22.52;;;20.65;;
46653;SDS011;38960;51.074;17.004;2023-06-14T16:59:39;22.20;;;20.65;;
46653;SDS011;38960;51.074;17.004;2023-06-14T17:02:04;21.38;;;19.63;;
46653;SDS011;38960;51.074;17.004;2023-06-14T17:04:30;21.67;;;19.77;;
46653;SDS011;38960;51.074;17.004;2023-06-14T17:06:56;22.13;;;20.52;;
46653;SDS011;38960;51.074;17.004;2023-06-14T17:09:22;22.70;;;20.52;;
46653;SDS011;38960;51.074;17.004;2023-06-14T17:11:47;20.98;;;19.27;;
46653;SDS011;38960;51.074;17.004;2023-06-14T17:14:13;21.10;;;19.60;;
46653;SDS011;38960;51.074;17.004;2023-06-14T17:16:39;23.00;;;21.25;;
46653;SDS011;38960;51.074;17.004;2023-06-14T17:19:05;22.58;;;20.88;;
46653;SDS011;38960;51.074;17.004;2023-06-14T17:21:31;21.33;;;19.73;;
46653;SDS011;38960;51.074;17.004;2023-06-14T17:23:57;22.13;;;20.42;;
46653;SDS011;38960;51.074;17.004;2023-06-14T17:26:23;23.30;;;21.33;;
46653;SDS011;38960;51.074;17.004;2023-06-14T17:28:48;22.58;;;20.65;;
46653;SDS011;38960;51.074;17.004;2023-06-14T17:31:14;22.10;;;20.67;;
46653;SDS011;38960;51.074;17.004;2023-06-14T17:33:40;23.27;;;21.52;;
46653;SDS011;38960;51.074;17.004;2023-06-14T17:36:05;22.98;;;21.35;;
46653;SDS011;38960;51.074;17.004;2023-06-14T17:38:31;22.33;;;20.17;;
46653;SDS011;38960;51.074;17.004;2023-06-14T17:40:56;22.73;;;20.98;;
46653;SDS011;38960;51.074;17.004;2023-06-14T17:43:24;23.45;;;21.45;;
46653;SDS011;38960;51.074;17.004;2023-06-14T17:45:50;23.02;;;21.00;;
46653;SDS011;38960;51.074;17.004;2023-06-14T17:48:15;20.88;;;19.30;;
46653;SDS011;38960;51.074;17.004;2023-06-14T17:50:41;23.13;;;21.33;;
46653;SDS011;38960;51.074;17.004;2023-06-14T17:53:06;22.33;;;20.90;;
46653;SDS011;38960;51.074;17.004;2023-06-14T17:55:32;21.75;;;20.05;;
46653;SDS011;38960;51.074;17.004;2023-06-14T17:57:58;22.10;;;20.40;;
46653;SDS011;38960;51.074;17.004;2023-06-14T18:00:25;24.42;;;22.20;;
46653;SDS011;38960;51.074;17.004;2023-06-14T18:02:50;23.05;;;21.35;;
46653;SDS011;38960;51.074;17.004;2023-06-14T18:05:16;22.33;;;20.58;;
46653;SDS011;38960;51.074;17.004;2023-06-14T18:07:42;23.80;;;22.05;;
46653;SDS011;38960;51.074;17.004;2023-06-14T18:10:07;23.60;;;21.90;;
46653;SDS011;38960;51.074;17.004;2023-06-14T18:12:33;21.02;;;19.52;;
46653;SDS011;38960;51.074;17.004;2023-06-14T18:14:58;23.15;;;21.00;;
46653;SDS011;38960;51.074;17.004;2023-06-14T18:17:24;22.88;;;20.98;;
46653;SDS011;38960;51.074;17.004;2023-06-14T18:19:50;23.80;;;21.52;;
46653;SDS011;38960;51.074;17.004;2023-06-14T18:22:15;22.58;;;20.77;;
46653;SDS011;38960;51.074;17.004;2023-06-14T18:24:41;21.80;;;20.10;;
46653;SDS011;38960;51.074;17.004;2023-06-14T18:27:06;21.98;;;20.40;;
46653;SDS011;38960;51.074;17.004;2023-06-14T18:29:34;21.13;;;19.60;;
46653;SDS011;38960;51.074;17.004;2023-06-14T18:32:01;21.77;;;20.02;;
46653;SDS011;38960;51.074;17.004;2023-06-14T18:34:27;21.15;;;19.75;;
46653;SDS011;38960;51.074;17.004;2023-06-14T18:36:52;20.98;;;19.67;;
46653;SDS011;38960;51.074;17.004;2023-06-14T18:39:21;21.65;;;20.08;;
46653;SDS011;38960;51.074;17.004;2023-06-14T18:41:46;20.25;;;18.90;;
46653;SDS011;38960;51.074;17.004;2023-06-14T18:44:12;20.88;;;19.27;;
46653;SDS011;38960;51.074;17.004;2023-06-14T18:46:38;19.95;;;18.52;;
46653;SDS011;38960;51.074;17.004;2023-06-14T18:49:03;21.42;;;20.02;;
46653;SDS011;38960;51.074;17.004;2023-06-14T18:51:31;21.20;;;19.80;;
46653;SDS011;38960;51.074;17.004;2023-06-14T18:53:59;22.35;;;20.65;;
46653;SDS011;38960;51.074;17.004;2023-06-14T18:56:26;20.88;;;19.40;;
46653;SDS011;38960;51.074;17.004;2023-06-14T18:58:51;20.60;;;19.15;;
46653;SDS011;38960;51.074;17.004;2023-06-14T19:01:17;20.95;;;19.42;;
46653;SDS011;38960;51.074;17.004;2023-06-14T19:03:42;20.75;;;19.27;;
46653;SDS011;38960;51.074;17.004;2023-06-14T19:06:08;20.42;;;18.83;;
46653;SDS011;38960;51.074;17.004;2023-06-14T19:08:33;21.15;;;19.38;;
46653;SDS011;38960;51.074;17.004;2023-06-14T19:10:59;20.65;;;19.25;;
46653;SDS011;38960;51.074;17.004;2023-06-14T19:13:24;20.63;;;19.13;;
46653;SDS011;38960;51.074;17.004;2023-06-14T19:15:50;20.67;;;18.92;;
46653;SDS011;38960;51.074;17.004;2023-06-14T19:18:18;20.40;;;19.00;;
46653;SDS011;38960;51.074;17.004;2023-06-14T19:20:43;21.45;;;19.95;;
46653;SDS011;38960;51.074;17.004;2023-06-14T19:23:09;20.75;;;19.15;;
46653;SDS011;38960;51.074;17.004;2023-06-14T19:25:34;20.02;;;18.65;;
46653;SDS011;38960;51.074;17.004;2023-06-14T19:28:01;20.85;;;19.45;;
46653;SDS011;38960;51.074;17.004;2023-06-14T19:30:26;20.10;;;18.70;;
46653;SDS011;38960;51.074;17.004;2023-06-14T19:32:52;21.58;;;19.63;;
46653;SDS011;38960;51.074;17.004;2023-06-14T19:35:17;20.70;;;19.20;;
46653;SDS011;38960;51.074;17.004;2023-06-14T19:37:46;21.80;;;19.98;;
46653;SDS011;38960;51.074;17.004;2023-06-14T19:40:12;21.10;;;19.55;;
46653;SDS011;38960;51.074;17.004;2023-06-14T19:42:39;21.75;;;20.00;;
46653;SDS011;38960;51.074;17.004;2023-06-14T19:45:05;21.55;;;20.05;;
46653;SDS011;38960;51.074;17.004;2023-06-14T19:47:33;22.10;;;20.33;;
46653;SDS011;38960;51.074;17.004;2023-06-14T19:49:58;22.48;;;20.67;;
46653;SDS011;38960;51.074;17.004;2023-06-14T19:52:24;22.23;;;20.48;;
46653;SDS011;38960;51.074;17.004;2023-06-14T19:54:50;22.58;;;20.67;;
46653;SDS011;38960;51.074;17.004;2023-06-14T19:57:15;22.55;;;20.85;;
46653;SDS011;38960;51.074;17.004;2023-06-14T19:59:42;22.13;;;20.27;;
46653;SDS011;38960;51.074;17.004;2023-06-14T20:02:08;23.38;;;21.50;;
46653;SDS011;38960;51.074;17.004;2023-06-14T20:04:34;21.45;;;20.05;;
46653;SDS011;38960;51.074;17.004;2023-06-14T20:07:02;21.90;;;20.05;;
46653;SDS011;38960;51.074;17.004;2023-06-14T20:09:31;20.80;;;19.30;;
46653;SDS011;38960;51.074;17.004;2023-06-14T20:11:59;22.05;;;20.13;;
46653;SDS011;38960;51.074;17.004;2023-06-14T20:14:25;21.98;;;19.77;;
46653;SDS011;38960;51.074;17.004;2023-06-14T20:16:51;21.02;;;19.63;;
46653;SDS011;38960;51.074;17.004;2023-06-14T20:19:17;21.50;;;19.90;;
46653;SDS011;38960;51.074;17.004;2023-06-14T20:21:42;21.45;;;20.00;;
46653;SDS011;38960;51.074;17.004;2023-06-14T20:24:08;21.52;;;19.67;;
46653;SDS011;38960;51.074;17.004;2023-06-14T20:26:33;21.20;;;19.42;;
46653;SDS011;38960;51.074;17.004;2023-06-14T20:28:59;21.63;;;19.63;;
46653;SDS011;38960;51.074;17.004;2023-06-14T20:31:25;21.77;;;19.98;;
46653;SDS011;38960;51.074;17.004;2023-06-14T20:33:50;20.90;;;19.25;;
46653;SDS011;38960;51.074;17.004;2023-06-14T20:36:16;21.85;;;19.98;;
46653;SDS011;38960;51.074;17.004;2023-06-14T20:38:43;21.30;;;19.77;;
46653;SDS011;38960;51.074;17.004;2023-06-14T20:41:09;21.13;;;19.52;;
46653;SDS011;38960;51.074;17.004;2023-06-14T20:43:34;22.73;;;20.00;;
46653;SDS011;38960;51.074;17.004;2023-06-14T20:46:00;22.67;;;19.42;;